sensor_id;sensor_type;location;lat;lon;timestamp;pressure;altitude;pressure_sealevel;temperature;humidity
29163;BME280;20331;53.144;8.208;2022-09-06T00:05:20;101621.25;;;20.11;63.02
29163;BME280;20331;53.144;8.208;2022-09-06T00:15:42;101608.72;;;20.04;63.55
29163;BME280;20331;53.144;8.208;2022-09-06T00:26:04;101595.59;;;19.93;63.58
29163;BME280;20331;53.144;8.208;2022-09-06T00:36:25;101580.53;;;19.93;63.98
29163;BME280;20331;53.144;8.208;2022-09-06T00:46:48;101579.44;;;19.77;64.58
29163;BME280;20331;53.144;8.208;2022-09-06T00:57:13;101585.41;;;19.88;63.88
29163;BME280;20331;53.144;8.208;2022-09-06T01:29:28;101582.75;;;19.60;65.71
29163;BME280;20331;53.144;8.208;2022-09-06T01:39:53;101574.91;;;19.30;66.42
29163;BME280;20331;53.144;8.208;2022-09-06T01:50:34;101560.47;;;19.34;66.89
29163;BME280;20331;53.144;8.208;2022-09-06T02:12:03;101564.03;;;19.14;67.93
29163;BME280;20331;53.144;8.208;2022-09-06T02:22:28;101548.50;;;19.00;68.42
29163;BME280;20331;53.144;8.208;2022-09-06T02:32:58;101545.00;;;19.00;68.37
29163;BME280;20331;53.144;8.208;2022-09-06T02:43:23;101540.06;;;19.06;68.28
29163;BME280;20331;53.144;8.208;2022-09-06T02:53:45;101544.19;;;18.99;69.13
29163;BME280;20331;53.144;8.208;2022-09-06T03:04:06;101528.88;;;19.03;68.98
29163;BME280;20331;53.144;8.208;2022-09-06T03:14:28;101517.22;;;19.05;68.70
29163;BME280;20331;53.144;8.208;2022-09-06T03:24:50;101499.53;;;18.96;69.25
29163;BME280;20331;53.144;8.208;2022-09-06T03:35:12;101500.41;;;19.06;69.17
29163;BME280;20331;53.144;8.208;2022-09-06T03:45:33;101499.41;;;19.07;69.69
29163;BME280;20331;53.144;8.208;2022-09-06T03:55:56;101495.13;;;19.06;69.40
29163;BME280;20331;53.144;8.208;2022-09-06T04:06:18;101503.56;;;19.00;69.94
29163;BME280;20331;53.144;8.208;2022-09-06T04:16:40;101494.00;;;19.09;69.88
29163;BME280;20331;53.144;8.208;2022-09-06T04:27:02;101479.44;;;19.14;69.23
29163;BME280;20331;53.144;8.208;2022-09-06T04:37:24;101486.81;;;19.20;68.52
29163;BME280;20331;53.144;8.208;2022-09-06T04:47:46;101478.25;;;19.07;69.30
29163;BME280;20331;53.144;8.208;2022-09-06T04:58:07;101493.28;;;19.07;69.23
29163;BME280;20331;53.144;8.208;2022-09-06T05:08:29;101540.38;;;19.22;67.76
29163;BME280;20331;53.144;8.208;2022-09-06T05:18:50;101524.50;;;19.22;68.28
29163;BME280;20331;53.144;8.208;2022-09-06T05:29:12;101532.16;;;19.16;68.27
29163;BME280;20331;53.144;8.208;2022-09-06T05:39:33;101537.31;;;19.17;67.71
29163;BME280;20331;53.144;8.208;2022-09-06T05:49:55;101553.34;;;17.21;100.00
29163;BME280;20331;53.144;8.208;2022-09-06T06:00:16;101534.97;;;16.99;100.00
29163;BME280;20331;53.144;8.208;2022-09-06T06:10:38;101511.25;;;16.88;100.00
29163;BME280;20331;53.144;8.208;2022-09-06T06:21:12;101569.22;;;16.66;100.00
29163;BME280;20331;53.144;8.208;2022-09-06T06:31:36;101487.56;;;16.77;100.00
29163;BME280;20331;53.144;8.208;2022-09-06T06:41:58;101514.16;;;16.63;100.00
29163;BME280;20331;53.144;8.208;2022-09-06T06:52:19;101517.53;;;16.43;100.00
29163;BME280;20331;53.144;8.208;2022-09-06T07:02:42;101534.50;;;16.61;100.00
29163;BME280;20331;53.144;8.208;2022-09-06T07:13:04;101571.72;;;16.68;100.00
29163;BME280;20331;53.144;8.208;2022-09-06T07:23:25;101570.41;;;16.95;100.00
29163;BME280;20331;53.144;8.208;2022-09-06T07:34:07;101557.44;;;17.03;100.00
29163;BME280;20331;53.144;8.208;2022-09-06T07:44:28;101553.38;;;17.10;100.00
29163;BME280;20331;53.144;8.208;2022-09-06T07:54:50;101555.88;;;17.23;100.00
29163;BME280;20331;53.144;8.208;2022-09-06T08:05:12;101546.09;;;17.56;100.00
29163;BME280;20331;53.144;8.208;2022-09-06T08:16:01;101537.22;;;17.57;100.00
29163;BME280;20331;53.144;8.208;2022-09-06T08:26:24;101539.66;;;17.49;100.00
29163;BME280;20331;53.144;8.208;2022-09-06T08:36:46;101526.78;;;17.55;100.00
29163;BME280;20331;53.144;8.208;2022-09-06T09:08:31;101537.72;;;17.51;93.71
29163;BME280;20331;53.144;8.208;2022-09-06T09:18:59;101533.34;;;17.72;89.89
29163;BME280;20331;53.144;8.208;2022-09-06T09:29:23;101525.28;;;17.73;94.34
29163;BME280;20331;53.144;8.208;2022-09-06T09:39:53;101532.69;;;17.79;94.29
29163;BME280;20331;53.144;8.208;2022-09-06T09:50:24;101539.72;;;17.90;93.91
29163;BME280;20331;53.144;8.208;2022-09-06T10:00:46;101533.03;;;17.86;88.75
29163;BME280;20331;53.144;8.208;2022-09-06T10:11:13;101532.25;;;17.95;92.04
29163;BME280;20331;53.144;8.208;2022-09-06T10:21:34;101538.06;;;17.89;93.87
29163;BME280;20331;53.144;8.208;2022-09-06T10:42:58;101533.72;;;18.49;81.59
29163;BME280;20331;53.144;8.208;2022-09-06T10:53:45;101517.50;;;18.33;81.54
29163;BME280;20331;53.144;8.208;2022-09-06T11:04:12;101523.44;;;18.55;81.70
29163;BME280;20331;53.144;8.208;2022-09-06T11:14:40;101506.06;;;18.83;79.63
29163;BME280;20331;53.144;8.208;2022-09-06T11:26:01;101504.31;;;19.21;79.16
29163;BME280;20331;53.144;8.208;2022-09-06T11:57:16;101491.97;;;19.97;77.59
29163;BME280;20331;53.144;8.208;2022-09-06T12:29:09;101478.50;;;20.90;80.10
29163;BME280;20331;53.144;8.208;2022-09-06T12:39:31;101463.75;;;21.40;80.31
29163;BME280;20331;53.144;8.208;2022-09-06T13:00:36;101455.34;;;21.62;76.84
29163;BME280;20331;53.144;8.208;2022-09-06T13:11:02;101436.22;;;21.76;75.32
29163;BME280;20331;53.144;8.208;2022-09-06T13:21:31;101441.28;;;22.20;74.96
29163;BME280;20331;53.144;8.208;2022-09-06T13:31:54;101436.94;;;21.86;78.01
29163;BME280;20331;53.144;8.208;2022-09-06T13:42:27;101420.88;;;21.70;77.88
29163;BME280;20331;53.144;8.208;2022-09-06T13:52:49;101426.09;;;22.05;74.36
29163;BME280;20331;53.144;8.208;2022-09-06T14:03:19;101416.28;;;21.97;76.24
29163;BME280;20331;53.144;8.208;2022-09-06T14:13:42;101408.69;;;22.10;75.07
29163;BME280;20331;53.144;8.208;2022-09-06T14:24:04;101397.97;;;21.94;75.09
29163;BME280;20331;53.144;8.208;2022-09-06T14:34:26;101397.53;;;22.32;73.64
29163;BME280;20331;53.144;8.208;2022-09-06T14:44:48;101391.09;;;22.35;71.92
29163;BME280;20331;53.144;8.208;2022-09-06T14:55:09;101364.69;;;22.41;74.03
29163;BME280;20331;53.144;8.208;2022-09-06T15:05:31;101359.88;;;22.44;73.90
29163;BME280;20331;53.144;8.208;2022-09-06T15:15:53;101365.50;;;22.41;73.28
29163;BME280;20331;53.144;8.208;2022-09-06T15:26:15;101361.94;;;22.74;71.27
29163;BME280;20331;53.144;8.208;2022-09-06T15:36:37;101354.50;;;22.86;71.60
29163;BME280;20331;53.144;8.208;2022-09-06T15:46:58;101356.94;;;22.71;71.89
29163;BME280;20331;53.144;8.208;2022-09-06T15:57:20;101342.66;;;22.72;72.61
29163;BME280;20331;53.144;8.208;2022-09-06T16:07:42;101321.06;;;22.75;70.91
29163;BME280;20331;53.144;8.208;2022-09-06T16:18:04;101309.09;;;23.03;70.78
29163;BME280;20331;53.144;8.208;2022-09-06T16:28:28;101292.38;;;23.73;71.87
29163;BME280;20331;53.144;8.208;2022-09-06T16:38:50;101293.69;;;22.91;71.77
29163;BME280;20331;53.144;8.208;2022-09-06T16:49:12;101308.09;;;22.64;71.21
29163;BME280;20331;53.144;8.208;2022-09-06T16:59:34;101311.72;;;22.47;71.84
29163;BME280;20331;53.144;8.208;2022-09-06T17:09:55;101310.53;;;21.93;77.54
29163;BME280;20331;53.144;8.208;2022-09-06T17:20:17;101307.88;;;21.42;76.76
29163;BME280;20331;53.144;8.208;2022-09-06T17:30:40;101316.38;;;21.20;77.29
29163;BME280;20331;53.144;8.208;2022-09-06T17:41:02;101316.78;;;20.90;79.41
29163;BME280;20331;53.144;8.208;2022-09-06T17:51:24;101317.13;;;20.60;79.88
29163;BME280;20331;53.144;8.208;2022-09-06T18:01:46;101315.59;;;20.40;78.78
29163;BME280;20331;53.144;8.208;2022-09-06T18:12:08;101335.81;;;20.41;77.64
29163;BME280;20331;53.144;8.208;2022-09-06T18:22:29;101347.72;;;20.01;79.63
29163;BME280;20331;53.144;8.208;2022-09-06T18:32:51;101342.34;;;19.84;78.18
29163;BME280;20331;53.144;8.208;2022-09-06T18:43:13;101342.97;;;19.68;82.12
29163;BME280;20331;53.144;8.208;2022-09-06T18:53:34;101338.97;;;19.55;82.84
29163;BME280;20331;53.144;8.208;2022-09-06T19:03:57;101324.34;;;19.51;80.39
29163;BME280;20331;53.144;8.208;2022-09-06T19:14:19;101336.25;;;19.28;81.44
29163;BME280;20331;53.144;8.208;2022-09-06T19:24:41;101331.63;;;19.11;79.45
29163;BME280;20331;53.144;8.208;2022-09-06T19:35:04;101333.88;;;19.25;80.80
29163;BME280;20331;53.144;8.208;2022-09-06T19:45:26;101319.00;;;18.96;82.85
29163;BME280;20331;53.144;8.208;2022-09-06T19:55:48;101313.44;;;18.89;81.46
29163;BME280;20331;53.144;8.208;2022-09-06T20:06:10;101304.53;;;18.90;84.88
29163;BME280;20331;53.144;8.208;2022-09-06T20:16:31;101296.06;;;18.77;84.83
29163;BME280;20331;53.144;8.208;2022-09-06T20:26:56;101291.34;;;18.81;85.60
29163;BME280;20331;53.144;8.208;2022-09-06T20:37:17;101273.13;;;18.68;85.75
29163;BME280;20331;53.144;8.208;2022-09-06T20:47:40;101271.03;;;18.62;88.07
29163;BME280;20331;53.144;8.208;2022-09-06T20:58:02;101248.63;;;18.57;86.36
29163;BME280;20331;53.144;8.208;2022-09-06T21:08:24;101228.91;;;18.51;86.16
29163;BME280;20331;53.144;8.208;2022-09-06T21:18:50;101224.88;;;18.29;85.02
29163;BME280;20331;53.144;8.208;2022-09-06T21:29:12;101216.78;;;18.21;86.03
29163;BME280;20331;53.144;8.208;2022-09-06T21:39:34;101220.91;;;17.95;89.39
29163;BME280;20331;53.144;8.208;2022-09-06T21:49:55;101222.59;;;17.96;88.82
29163;BME280;20331;53.144;8.208;2022-09-06T22:00:17;101223.41;;;17.87;88.73
29163;BME280;20331;53.144;8.208;2022-09-06T22:10:39;101199.06;;;17.83;89.86
29163;BME280;20331;53.144;8.208;2022-09-06T22:21:10;101215.31;;;17.79;88.60
29163;BME280;20331;53.144;8.208;2022-09-06T22:31:33;101211.38;;;17.64;89.39
29163;BME280;20331;53.144;8.208;2022-09-06T22:41:55;101204.28;;;17.55;89.16
29163;BME280;20331;53.144;8.208;2022-09-06T22:52:16;101197.59;;;17.51;89.47
29163;BME280;20331;53.144;8.208;2022-09-06T23:02:38;101178.84;;;17.44;90.04
29163;BME280;20331;53.144;8.208;2022-09-06T23:12:59;101175.66;;;17.41;90.42
29163;BME280;20331;53.144;8.208;2022-09-06T23:23:21;101149.56;;;17.38;91.78
29163;BME280;20331;53.144;8.208;2022-09-06T23:33:43;101151.31;;;17.28;89.93
29163;BME280;20331;53.144;8.208;2022-09-06T23:44:04;101140.53;;;17.31;91.40
29163;BME280;20331;53.144;8.208;2022-09-06T23:54:26;101132.28;;;17.25;90.98
